Pagina principale
METAR-TAF:

METAR-TAF

Aeroporti :

Xi'an, Cina

latitudine: 34-26N, longitudine: 108-45E, altezza: 479 m

Osservazione

Il bollettino è stato emesso 57 minuti fa, alle 08:00 UTC
Vento 10 kt da est/nord-est, variando fra nord/nord-est e est
Temperature 38°C
Umidità 42%
Pressione 1002 hPa
Visibilità 10 km o più
nessuna nube inferiore a 1500 m e nessun cumulonembo

METAR: ZLXY 220800Z 06005MPS 030V100 CAVOK 38/23 Q1002 NOSIG

Ora: 16:57 (08:57 UTC)

Previsione

Il bollettino è stato emesso 5 ore e 52 minuti fa, alle 03:05 UTC
Previsione valida dal 22 alle 06 UTC al 23 alle 06 UTC
Vento 8 kt da est con raffiche fino a 17 kt
Visibilità: 3000 m
foschia

TAF: ZLXY 220305Z 2206/2306 08004G09MPS 3000 HZ NSC TX38/2208Z TN27/2221Z

Osservazioni e previsioni meteorologiche di più di 4000 aeroporti (messaggi METAR e TAF).

Le stazioni disponibili sono rappresentate dai dischi gialli e rossi sulla carta.

Puntare il mouse per vedere il nome della stazione.

Clicca sopra per visualizzare le osservazioni e previsioni meteorologiche.

Per cambiare la mappa : fare clic sui pulsanti verdi con una croce nera per ingrandire, il pulsante verde con un trattino per diminuire, o sulla freccia verde per le mappe adiacenti.


METAR-TAF: